createdAt,value
2018-05-26T00:01:27.782Z,13.33
2018-05-26T00:04:00.381Z,17.00
2018-05-26T00:06:31.799Z,15.00
2018-05-26T00:09:03.317Z,14.33
2018-05-26T00:11:36.792Z,17.00
2018-05-26T00:14:08.386Z,18.00
2018-05-26T00:16:41.199Z,18.00
2018-05-26T00:19:13.773Z,19.00
2018-05-26T00:21:44.361Z,16.00
2018-05-26T00:24:17.667Z,15.67
2018-05-26T00:26:49.105Z,14.33
2018-05-26T00:29:20.467Z,16.67
2018-05-26T00:31:53.205Z,17.00
2018-05-26T00:34:23.696Z,21.67
2018-05-26T00:36:54.554Z,18.67
2018-05-26T00:39:25.596Z,17.00
2018-05-26T00:41:56.091Z,17.00
2018-05-26T00:44:28.768Z,19.33
2018-05-26T00:47:00.242Z,17.00
2018-05-26T00:49:32.162Z,17.67
2018-05-26T00:52:04.021Z,16.33
2018-05-26T00:54:37.046Z,18.33
2018-05-26T00:57:09.387Z,17.00
2018-05-26T00:59:41.089Z,17.00
2018-05-26T01:02:11.527Z,20.33
2018-05-26T01:04:42.108Z,16.00
2018-05-26T01:07:12.999Z,17.67
2018-05-26T01:09:44.419Z,17.00
2018-05-26T01:12:15.269Z,16.33
2018-05-26T01:14:47.584Z,17.00
2018-05-26T01:17:19.986Z,20.00
2018-05-26T01:19:54.743Z,18.67
2018-05-26T01:22:25.291Z,19.00
2018-05-26T01:24:57.692Z,18.00
2018-05-26T01:27:31.292Z,18.33
2018-05-26T01:30:03.697Z,21.67
2018-05-26T01:32:34.280Z,19.67
2018-05-26T01:35:04.819Z,19.00
2018-05-26T01:37:35.272Z,16.00
2018-05-26T01:40:06.533Z,18.67
2018-05-26T01:42:38.802Z,20.00
2018-05-26T01:45:13.268Z,18.00
2018-05-26T01:47:45.598Z,17.00
2018-05-26T01:50:16.050Z,18.33
2018-05-26T01:52:46.857Z,19.00
2018-05-26T01:55:19.167Z,18.33
2018-05-26T01:57:49.666Z,18.67
2018-05-26T02:00:20.187Z,18.00
2018-05-26T02:02:50.597Z,19.00
2018-05-26T02:05:21.380Z,17.00
2018-05-26T02:07:51.944Z,18.00
2018-05-26T02:10:22.393Z,16.00
2018-05-26T02:12:52.814Z,17.00
2018-05-26T02:15:23.225Z,17.00
2018-05-26T02:17:55.807Z,20.00
2018-05-26T02:20:27.269Z,17.00
2018-05-26T02:22:59.574Z,19.00
2018-05-26T02:25:30.361Z,21.67
2018-05-26T02:28:00.819Z,20.33
2018-05-26T02:30:31.290Z,19.67
2018-05-26T02:33:02.325Z,19.00
2018-05-26T02:35:32.786Z,19.00
2018-05-26T02:38:05.171Z,20.00
2018-05-26T02:40:35.634Z,20.33
2018-05-26T02:43:06.085Z,19.00
2018-05-26T02:45:37.600Z,21.67
2018-05-26T02:48:08.122Z,17.67
2018-05-26T02:50:38.547Z,17.67
2018-05-26T02:53:09.969Z,19.67
2018-05-26T02:55:40.450Z,20.00
2018-05-26T02:58:11.234Z,19.33
2018-05-26T03:00:42.466Z,19.67
2018-05-26T03:03:12.936Z,18.33
2018-05-26T03:05:49.626Z,22.00
2018-05-26T03:08:25.138Z,17.33
2018-05-26T03:11:01.001Z,21.00
2018-05-26T03:13:36.556Z,19.67
2018-05-26T03:16:07.390Z,22.00
2018-05-26T03:18:38.033Z,20.33
2018-05-26T03:21:08.494Z,21.00
2018-05-26T03:23:39.334Z,22.67
2018-05-26T03:26:09.810Z,21.33
2018-05-26T03:28:40.355Z,18.00
2018-05-26T03:31:10.849Z,18.33
2018-05-26T03:33:42.183Z,19.33
2018-05-26T03:36:12.685Z,23.00
2018-05-26T03:38:43.562Z,21.00
2018-05-26T03:41:14.330Z,21.67
2018-05-26T03:43:45.054Z,17.67
2018-05-26T03:46:15.773Z,19.33
2018-05-26T03:48:46.199Z,21.67
2018-05-26T03:51:16.645Z,19.33
2018-05-26T03:53:46.863Z,20.00
2018-05-26T03:56:27.858Z,20.67
2018-05-26T03:59:09.283Z,21.33
2018-05-26T04:01:40.207Z,20.33
2018-05-26T04:04:10.674Z,20.00
2018-05-26T04:06:42.348Z,21.00
2018-05-26T04:09:12.817Z,19.67
2018-05-26T04:11:43.367Z,19.33
2018-05-26T04:14:13.899Z,18.33
2018-05-26T04:16:44.286Z,20.00
2018-05-26T04:19:16.742Z,17.33
2018-05-26T04:21:47.488Z,19.33
2018-05-26T04:24:17.940Z,19.33
2018-05-26T04:26:48.424Z,21.00
2018-05-26T04:29:19.721Z,19.33
2018-05-26T04:31:53.326Z,18.33
2018-05-26T04:34:23.903Z,18.00
2018-05-26T04:36:54.478Z,20.33
2018-05-26T04:39:25.478Z,20.00
2018-05-26T04:41:56.006Z,23.00
2018-05-26T04:44:26.583Z,19.00
2018-05-26T04:46:57.054Z,19.00
2018-05-26T04:49:29.336Z,20.00
2018-05-26T04:52:00.072Z,21.67
2018-05-26T04:54:30.617Z,19.00
2018-05-26T04:57:01.703Z,19.00
2018-05-26T04:59:32.189Z,19.33
2018-05-26T05:02:02.626Z,20.67
2018-05-26T05:04:33.478Z,21.67
2018-05-26T05:07:03.913Z,21.67
2018-05-26T05:09:34.510Z,20.00
2018-05-26T05:12:05.257Z,20.00
2018-05-26T05:14:36.325Z,19.00
2018-05-26T05:17:06.827Z,19.67
2018-05-26T05:19:37.225Z,20.00
2018-05-26T05:22:07.634Z,22.00
2018-05-26T05:24:38.522Z,19.00
2018-05-26T05:27:09.005Z,19.00
2018-05-26T05:29:39.534Z,23.33
2018-05-26T05:32:10.310Z,21.00
2018-05-26T05:34:40.783Z,23.67
2018-05-26T05:37:11.289Z,20.00
2018-05-26T05:39:41.778Z,23.33
2018-05-26T05:42:12.302Z,20.33
2018-05-26T05:44:43.092Z,19.00
2018-05-26T05:47:13.642Z,23.33
2018-05-26T05:49:44.748Z,22.33
2018-05-26T05:52:15.238Z,26.00
2018-05-26T05:54:45.719Z,22.00
2018-05-26T05:57:16.642Z,21.00
2018-05-26T05:59:47.433Z,24.67
2018-05-26T06:02:17.875Z,23.00
2018-05-26T06:04:48.396Z,23.00
2018-05-26T06:07:18.848Z,23.67
2018-05-26T06:09:50.329Z,19.33
2018-05-26T06:12:20.807Z,24.00
2018-05-26T06:14:51.757Z,23.00
2018-05-26T06:17:22.865Z,21.33
2018-05-26T06:19:53.375Z,21.33
2018-05-26T06:22:23.799Z,21.00
2018-05-26T06:24:54.322Z,23.67
2018-05-26T06:27:32.014Z,23.00
2018-05-26T06:30:03.692Z,20.67
2018-05-26T06:32:34.164Z,20.67
2018-05-26T06:35:04.650Z,25.33
2018-05-26T06:37:35.248Z,20.00
2018-05-26T06:40:05.834Z,26.67
2018-05-26T06:42:36.705Z,23.00
2018-05-26T06:45:07.209Z,21.67
2018-05-26T06:47:37.722Z,23.33
2018-05-26T06:50:09.091Z,20.67
2018-05-26T06:52:41.545Z,24.00
2018-05-26T06:55:12.465Z,24.33
2018-05-26T06:57:42.988Z,22.67
2018-05-26T07:00:15.289Z,26.00
2018-05-26T07:02:45.918Z,21.00
2018-05-26T07:05:17.109Z,24.67
2018-05-26T07:07:48.574Z,24.67
2018-05-26T07:10:18.962Z,26.33
2018-05-26T07:12:50.009Z,24.00
2018-05-26T07:15:20.476Z,25.67
2018-05-26T07:17:51.044Z,26.33
2018-05-26T07:20:26.469Z,23.33
2018-05-26T07:22:57.262Z,23.67
2018-05-26T07:25:27.896Z,21.67
2018-05-26T07:27:58.934Z,22.00
2018-05-26T07:30:29.539Z,22.67
2018-05-26T07:33:04.597Z,21.67
2018-05-26T07:35:35.239Z,22.67
2018-05-26T07:38:05.667Z,21.00
2018-05-26T07:40:36.433Z,26.00
2018-05-26T07:43:06.957Z,22.67
2018-05-26T07:45:37.436Z,23.33
2018-05-26T07:48:08.236Z,25.00
2018-05-26T07:50:38.856Z,22.33
2018-05-26T07:53:09.628Z,23.33
2018-05-26T07:55:40.397Z,23.67
2018-05-26T07:58:10.881Z,23.33
2018-05-26T08:00:41.701Z,23.00
2018-05-26T08:03:12.186Z,23.00
2018-05-26T08:05:42.686Z,21.00
2018-05-26T08:08:13.421Z,26.00
2018-05-26T08:10:43.869Z,25.67
2018-05-26T08:13:14.509Z,23.33
2018-05-26T08:15:45.384Z,24.00
2018-05-26T08:18:15.931Z,25.67
2018-05-26T08:20:46.457Z,23.00
2018-05-26T08:23:16.961Z,21.67
2018-05-26T08:25:47.420Z,24.33
2018-05-26T08:28:18.248Z,24.33
2018-05-26T08:30:48.785Z,24.67
2018-05-26T08:33:20.116Z,27.00
2018-05-26T08:35:51.079Z,24.33
2018-05-26T08:38:21.544Z,25.67
2018-05-26T08:40:52.026Z,25.00
2018-05-26T08:43:23.181Z,20.67
2018-05-26T08:45:53.584Z,23.67
2018-05-26T08:48:24.318Z,23.33
2018-05-26T08:50:54.885Z,24.33
2018-05-26T08:53:25.355Z,21.67
2018-05-26T08:55:55.826Z,22.67
2018-05-26T08:58:26.364Z,25.00
2018-05-26T09:00:57.130Z,24.00
2018-05-26T09:03:27.659Z,21.00
2018-05-26T09:05:58.222Z,23.67
2018-05-26T09:08:28.694Z,23.00
2018-05-26T09:10:59.894Z,21.67
2018-05-26T09:13:30.978Z,22.67
2018-05-26T09:16:01.626Z,20.67
2018-05-26T09:18:32.242Z,25.67
2018-05-26T09:21:03.057Z,21.33
2018-05-26T09:23:33.610Z,22.00
2018-05-26T09:26:04.095Z,20.33
2018-05-26T09:28:34.621Z,21.33
2018-05-26T09:31:05.101Z,24.67
2018-05-26T09:33:35.940Z,20.33
2018-05-26T09:36:06.414Z,23.00
2018-05-26T09:38:36.971Z,18.00
2018-05-26T09:41:07.498Z,19.00
2018-05-26T09:43:38.000Z,20.67
2018-05-26T09:46:08.810Z,22.00
2018-05-26T09:48:39.315Z,22.67
2018-05-26T09:51:09.770Z,23.00
2018-05-26T09:53:40.290Z,23.33
2018-05-26T09:56:10.808Z,22.00
2018-05-26T09:58:41.587Z,19.67
2018-05-26T10:01:12.109Z,19.00
2018-05-26T10:03:44.891Z,20.00
2018-05-26T10:06:17.247Z,20.00
2018-05-26T10:08:47.707Z,19.67
2018-05-26T10:11:18.628Z,20.00
2018-05-26T10:13:49.083Z,20.67
2018-05-26T10:16:19.597Z,17.33
2018-05-26T10:18:51.554Z,19.67
2018-05-26T10:21:21.992Z,19.67
2018-05-26T10:23:52.431Z,18.00
2018-05-26T10:26:23.374Z,19.00
2018-05-26T10:28:53.993Z,20.67
2018-05-26T10:31:24.481Z,20.00
2018-05-26T10:33:55.552Z,20.00
2018-05-26T10:36:26.091Z,18.33
2018-05-26T10:38:56.913Z,19.67
2018-05-26T10:41:27.471Z,20.67
2018-05-26T10:43:58.025Z,19.67
2018-05-26T10:46:29.259Z,20.33
2018-05-26T10:48:59.550Z,19.67
2018-05-26T10:51:30.362Z,20.33
2018-05-26T10:54:00.665Z,21.33
2018-05-26T10:56:30.907Z,17.00
2018-05-26T10:59:01.347Z,18.00
2018-05-26T11:01:33.458Z,22.00
2018-05-26T11:04:03.683Z,19.33
2018-05-26T11:06:44.471Z,18.67
2018-05-26T11:09:14.750Z,18.67
2018-05-26T11:11:45.783Z,18.67
2018-05-26T11:14:17.901Z,15.67
2018-05-26T11:16:50.842Z,16.00
2018-05-26T11:19:22.927Z,18.00
2018-05-26T11:21:55.939Z,16.00
2018-05-26T11:24:27.730Z,17.67
2018-05-26T11:26:59.966Z,20.00
2018-05-26T11:29:32.034Z,16.67
2018-05-26T11:32:04.555Z,15.33
2018-05-26T11:34:35.699Z,15.00
2018-05-26T11:37:05.942Z,15.67
2018-05-26T11:39:38.190Z,13.33
2018-05-26T11:42:09.336Z,17.00
2018-05-26T11:44:41.556Z,16.67
2018-05-26T11:47:11.869Z,17.33
2018-05-26T11:49:43.934Z,15.00
2018-05-26T11:52:15.329Z,14.33
2018-05-26T11:54:47.472Z,15.67
2018-05-26T11:57:18.750Z,15.33
2018-05-26T11:59:49.955Z,16.00
2018-05-26T12:02:21.272Z,13.00
2018-05-26T12:04:52.701Z,14.67
2018-05-26T12:07:23.906Z,14.67
2018-05-26T12:09:55.983Z,15.67
2018-05-26T12:12:28.540Z,14.00
2018-05-26T12:15:04.643Z,15.00
2018-05-26T12:17:35.851Z,16.00
2018-05-26T12:20:06.951Z,13.67
2018-05-26T12:22:38.137Z,14.67
2018-05-26T12:25:09.732Z,15.33
2018-05-26T12:27:41.644Z,13.33
2018-05-26T12:30:14.439Z,13.67
2018-05-26T12:32:47.934Z,14.00
2018-05-26T12:35:19.074Z,16.00
2018-05-26T12:37:50.221Z,13.00
2018-05-26T12:40:21.382Z,15.00
2018-05-26T12:42:52.845Z,13.00
2018-05-26T12:45:24.881Z,16.00
2018-05-26T12:47:56.124Z,15.00
2018-05-26T12:50:27.577Z,14.00
2018-05-26T12:52:58.641Z,15.00
2018-05-26T12:55:29.746Z,16.00
2018-05-26T12:58:01.116Z,14.00
2018-05-26T13:00:32.176Z,14.00
2018-05-26T13:03:03.334Z,15.33
2018-05-26T13:05:35.337Z,15.00
2018-05-26T13:08:06.398Z,12.67
2018-05-26T13:10:37.694Z,12.67
2018-05-26T13:13:08.796Z,14.00
2018-05-26T13:15:39.863Z,12.33
2018-05-26T13:18:11.374Z,13.33
2018-05-26T13:20:42.488Z,13.67
2018-05-26T13:23:13.559Z,13.67
2018-05-26T13:25:44.971Z,11.67
2018-05-26T13:28:16.066Z,14.33
2018-05-26T13:30:47.268Z,12.67
2018-05-26T13:33:18.319Z,15.00
2018-05-26T13:35:50.267Z,12.00
2018-05-26T13:38:21.826Z,13.00
2018-05-26T13:40:52.955Z,14.00
2018-05-26T13:43:24.656Z,14.00
2018-05-26T13:45:56.001Z,13.33
2018-05-26T13:48:27.384Z,13.33
2018-05-26T13:50:59.300Z,15.00
2018-05-26T13:53:30.814Z,14.67
2018-05-26T13:56:02.826Z,14.00
2018-05-26T13:58:34.238Z,13.00
2018-05-26T14:01:06.517Z,16.33
2018-05-26T14:03:38.274Z,13.00
2018-05-26T14:06:09.610Z,13.00
2018-05-26T14:08:40.975Z,14.33
2018-05-26T14:11:12.823Z,14.67
2018-05-26T14:13:44.265Z,13.67
2018-05-26T14:16:15.684Z,13.00
2018-05-26T14:18:47.034Z,13.67
2018-05-26T14:21:18.445Z,14.00
2018-05-26T14:23:50.269Z,15.00
2018-05-26T14:26:21.622Z,14.00
2018-05-26T14:28:53.333Z,15.67
2018-05-26T14:31:24.730Z,14.00
2018-05-26T14:33:56.086Z,14.67
2018-05-26T14:36:28.602Z,14.33
2018-05-26T14:38:59.957Z,15.00
2018-05-26T14:41:31.426Z,16.00
2018-05-26T14:44:03.588Z,12.00
2018-05-26T14:46:35.915Z,16.67
2018-05-26T14:49:07.642Z,14.33
2018-05-26T14:51:39.046Z,15.67
2018-05-26T14:54:11.411Z,15.33
2018-05-26T14:56:43.963Z,12.25
2018-05-26T14:59:15.270Z,13.00
2018-05-26T15:01:46.635Z,15.33
2018-05-26T15:04:18.499Z,15.00
2018-05-26T15:06:50.006Z,14.33
2018-05-26T15:09:22.211Z,14.00
2018-05-26T15:11:53.875Z,13.00
2018-05-26T15:14:25.279Z,13.00
2018-05-26T15:16:57.017Z,14.33
2018-05-26T15:19:29.945Z,13.00
2018-05-26T15:22:02.572Z,14.67
2018-05-26T15:24:35.539Z,15.00
2018-05-26T15:27:08.544Z,12.67
2018-05-26T15:29:40.025Z,15.00
2018-05-26T15:32:11.657Z,14.00
2018-05-26T15:34:44.019Z,14.33
2018-05-26T15:37:15.720Z,13.00
2018-05-26T15:39:47.272Z,13.00
2018-05-26T15:42:18.694Z,14.00
2018-05-26T15:44:50.422Z,13.00
2018-05-26T15:47:21.746Z,13.67
2018-05-26T15:49:53.189Z,14.00
2018-05-26T15:52:24.619Z,15.67
2018-05-26T15:54:55.988Z,14.00
2018-05-26T15:57:28.608Z,16.00
2018-05-26T16:00:00.050Z,13.00
2018-05-26T16:02:33.131Z,13.75
2018-05-26T16:05:05.594Z,13.33
2018-05-26T16:07:36.932Z,13.33
2018-05-26T16:10:09.770Z,12.00
2018-05-26T16:12:41.480Z,13.33
2018-05-26T16:15:15.084Z,13.00
2018-05-26T16:17:46.873Z,13.00
2018-05-26T16:20:18.289Z,13.67
2018-05-26T16:22:49.735Z,14.00
2018-05-26T16:25:22.441Z,13.33
2018-05-26T16:27:54.013Z,12.00
2018-05-26T16:30:25.572Z,14.00
2018-05-26T16:32:57.042Z,14.00
2018-05-26T16:35:28.443Z,13.67
2018-05-26T16:38:01.412Z,13.00
2018-05-26T16:40:33.629Z,11.25
2018-05-26T16:43:05.181Z,13.00
2018-05-26T16:45:36.565Z,14.00
2018-05-26T16:48:08.803Z,13.75
2018-05-26T16:53:06.953Z,12.00
2018-05-26T16:55:39.237Z,13.50
2018-05-26T16:58:12.110Z,14.00
2018-05-26T17:00:43.898Z,13.00
2018-05-26T17:03:18.672Z,13.67
2018-05-26T17:05:50.382Z,12.00
2018-05-26T17:08:21.774Z,13.00
2018-05-26T17:10:55.188Z,12.00
2018-05-26T17:13:26.979Z,13.00
2018-05-26T17:15:58.409Z,14.00
2018-05-26T17:18:29.874Z,12.67
2018-05-26T17:21:01.515Z,13.33
2018-05-26T17:23:33.727Z,12.75
2018-05-26T17:26:05.094Z,13.00
2018-05-26T17:28:36.842Z,13.00
2018-05-26T17:31:08.245Z,13.00
2018-05-26T17:33:40.551Z,11.67
2018-05-26T17:36:12.831Z,12.00
2018-05-26T17:38:44.147Z,12.67
2018-05-26T17:41:16.442Z,11.67
2018-05-26T17:43:48.701Z,13.00
2018-05-26T17:46:20.241Z,11.00
2018-05-26T17:48:51.527Z,12.00
2018-05-26T17:51:23.746Z,13.00
2018-05-26T17:53:55.442Z,13.67
2018-05-26T17:56:27.140Z,11.67
2018-05-26T17:58:58.547Z,12.00
2018-05-26T18:01:31.102Z,12.00
2018-05-26T18:04:02.652Z,13.67
2018-05-26T18:06:40.366Z,13.00
2018-05-26T18:09:12.657Z,13.75
2018-05-26T18:11:44.436Z,15.67
2018-05-26T18:14:16.031Z,13.33
2018-05-26T18:16:47.462Z,16.33
2018-05-26T18:19:19.243Z,14.33
2018-05-26T18:21:51.634Z,17.33
2018-05-26T18:24:23.991Z,16.00
2018-05-26T18:26:55.671Z,13.67
2018-05-26T18:29:27.171Z,15.33
2018-05-26T18:31:58.724Z,14.00
2018-05-26T18:34:30.153Z,14.67
2018-05-26T18:37:01.731Z,11.00
2018-05-26T18:39:33.471Z,13.67
2018-05-26T18:42:04.884Z,14.00
2018-05-26T18:44:36.499Z,14.67
2018-05-26T18:47:07.946Z,13.00
2018-05-26T18:49:39.370Z,15.67
2018-05-26T18:52:10.663Z,15.00
2018-05-26T18:54:42.116Z,15.00
2018-05-26T18:57:13.506Z,15.33
2018-05-26T18:59:44.874Z,14.33
2018-05-26T19:02:16.283Z,15.00
2018-05-26T19:04:47.916Z,14.33
2018-05-26T19:07:19.507Z,14.33
2018-05-26T19:09:50.838Z,15.00
2018-05-26T19:12:22.206Z,17.33
2018-05-26T19:14:53.646Z,14.33
2018-05-26T19:17:26.287Z,16.00
2018-05-26T19:19:57.879Z,15.00
2018-05-26T19:22:30.186Z,15.00
2018-05-26T19:25:02.029Z,15.00
2018-05-26T19:27:32.490Z,16.67
2018-05-26T19:30:05.524Z,16.33
2018-05-26T19:32:36.458Z,15.67
2018-05-26T19:35:06.986Z,18.67
2018-05-26T19:37:37.517Z,16.67
2018-05-26T19:40:09.164Z,15.00
2018-05-26T19:42:40.617Z,17.00
2018-05-26T19:45:14.397Z,14.67
2018-05-26T19:47:45.860Z,17.67
2018-05-26T19:50:17.202Z,18.33
2018-05-26T19:52:49.029Z,17.00
2018-05-26T19:55:20.110Z,19.67
2018-05-26T19:57:50.542Z,20.00
2018-05-26T20:00:21.063Z,19.67
2018-05-26T20:02:51.590Z,17.33
2018-05-26T20:05:22.314Z,19.67
2018-05-26T20:07:52.926Z,19.33
2018-05-26T20:10:24.118Z,22.00
2018-05-26T20:12:55.072Z,17.00
2018-05-26T20:15:25.654Z,19.67
2018-05-26T20:17:58.367Z,22.33
2018-05-26T20:20:29.067Z,22.00
2018-05-26T20:22:59.583Z,18.33
2018-05-26T20:25:30.379Z,21.00
2018-05-26T20:28:02.666Z,19.67
2018-05-26T20:30:33.183Z,18.33
2018-05-26T20:33:04.017Z,15.33
2018-05-26T20:35:36.605Z,15.67
2018-05-26T20:38:09.150Z,17.00
2018-05-26T20:40:41.395Z,17.00
2018-05-26T20:43:11.995Z,16.00
2018-05-26T20:45:44.706Z,17.33
2018-05-26T20:48:16.670Z,16.00
2018-05-26T20:50:47.314Z,17.00
2018-05-26T20:53:20.660Z,19.00
2018-05-26T20:55:51.149Z,17.33
2018-05-26T20:58:23.524Z,21.00
2018-05-26T21:00:54.111Z,19.33
2018-05-26T21:03:24.591Z,19.67
2018-05-26T21:05:55.514Z,19.67
2018-05-26T21:08:26.002Z,22.00
2018-05-26T21:10:56.590Z,20.00
2018-05-26T21:13:27.354Z,19.67
2018-05-26T21:15:57.922Z,20.00
2018-05-26T21:18:28.506Z,19.33
2018-05-26T21:20:59.006Z,19.00
2018-05-26T21:23:29.561Z,18.33
2018-05-26T21:26:00.387Z,17.33
2018-05-26T21:28:30.849Z,19.00
2018-05-26T21:31:01.384Z,17.00
2018-05-26T21:33:33.630Z,18.33
2018-05-26T21:36:05.246Z,19.00
2018-05-26T21:38:38.826Z,16.67
2018-05-26T21:41:11.160Z,16.33
2018-05-26T21:43:41.632Z,18.00
2018-05-26T21:46:14.313Z,18.33
2018-05-26T21:48:44.787Z,17.33
2018-05-26T21:51:15.324Z,17.67
2018-05-26T21:53:47.758Z,15.67
2018-05-26T21:56:20.052Z,19.00
2018-05-26T21:58:50.833Z,19.00
2018-05-26T22:01:23.191Z,17.33
2018-05-26T22:03:54.649Z,19.33
2018-05-26T22:06:25.203Z,17.00
2018-05-26T22:08:57.530Z,18.33
2018-05-26T22:11:30.253Z,20.67
2018-05-26T22:14:00.737Z,19.67
2018-05-26T22:16:31.250Z,18.00
2018-05-26T22:19:02.061Z,18.00
2018-05-26T22:21:34.428Z,17.33
2018-05-26T22:24:05.914Z,18.00
2018-05-26T22:26:38.226Z,19.00
2018-05-26T22:29:08.646Z,15.67
2018-05-26T22:31:40.410Z,17.67
2018-05-26T22:34:10.855Z,17.00
2018-05-26T22:36:43.338Z,17.67
2018-05-26T22:39:13.634Z,16.00
2018-05-26T22:41:44.143Z,18.67
2018-05-26T22:44:15.877Z,17.67
2018-05-26T22:46:46.626Z,19.00
2018-05-26T22:49:17.121Z,17.00
2018-05-26T22:51:48.734Z,17.67
2018-05-26T22:54:19.290Z,20.33
2018-05-26T22:56:51.689Z,20.67
2018-05-26T22:59:22.131Z,16.67
2018-05-26T23:01:54.443Z,16.33
2018-05-26T23:04:25.411Z,17.00
2018-05-26T23:06:56.182Z,18.33
2018-05-26T23:09:28.904Z,20.00
2018-05-26T23:11:59.387Z,16.67
2018-05-26T23:14:31.796Z,17.33
2018-05-26T23:17:03.545Z,16.00
2018-05-26T23:19:34.072Z,17.00
2018-05-26T23:22:04.926Z,19.67
2018-05-26T23:24:36.496Z,18.67
2018-05-26T23:27:07.065Z,16.00
2018-05-26T23:29:37.827Z,21.00
2018-05-26T23:32:10.126Z,18.00
2018-05-26T23:34:40.711Z,20.00
2018-05-26T23:37:11.616Z,17.33
2018-05-26T23:39:42.185Z,17.67
2018-05-26T23:42:12.765Z,20.67
2018-05-26T23:44:43.641Z,18.67
2018-05-26T23:47:14.122Z,22.33
2018-05-26T23:49:44.630Z,21.33
2018-05-26T23:52:15.191Z,20.00
2018-05-26T23:54:47.582Z,19.00
2018-05-26T23:57:19.212Z,22.67
2018-05-26T23:59:49.770Z,19.00
